Time;durP1;ratioP1;P1;durP2;ratioP2;P2;SDS_P1;SDS_P2;PMS_P1;PMS_P2;Temp;Humidity;BMP_temperature;BMP_pressure;BME280_temperature;BME280_humidity;BME280_pressure;Samples;Min_cycle;Max_cycle;Signal;HPM_P1;HPM_P2
2022/03/24 00:00:00;;;;;;;86.25;25.88;;;;;;;;;;4983978;28;20030;-73
2022/03/24 00:02:25;;;;;;;87.82;27.38;;;;;;;;;;4982045;28;20031;-74
2022/03/24 00:04:50;;;;;;;89.93;28.33;;;;;;;;;;4984052;28;20256;-73
2022/03/24 00:07:16;;;;;;;94.32;29.30;;;;;;;;;;4978672;28;20468;-73
2022/03/24 00:09:41;;;;;;;103.67;33.17;;;;;;;;;;4988725;28;20033;-73
2022/03/24 00:12:07;;;;;;;93.80;33.08;;;;;;;;;;4986934;28;20268;-73
2022/03/24 00:14:32;;;;;;;106.95;29.77;;;;;;;;;;4988157;28;20068;-73
2022/03/24 00:16:58;;;;;;;102.00;32.10;;;;;;;;;;4984374;28;20502;-73
2022/03/24 00:19:23;;;;;;;100.55;31.77;;;;;;;;;;4982262;28;20037;-73
2022/03/24 00:21:48;;;;;;;96.80;32.33;;;;;;;;;;4988827;28;20098;-73
2022/03/24 00:24:13;;;;;;;99.10;31.08;;;;;;;;;;4979551;28;20404;-73
2022/03/24 00:26:39;;;;;;;94.97;29.88;;;;;;;;;;4984185;28;20030;-73
2022/03/24 00:29:04;;;;;;;102.15;31.08;;;;;;;;;;4984153;28;20019;-73
2022/03/24 00:31:29;;;;;;;107.78;32.70;;;;;;;;;;4976616;28;20490;-73
2022/03/24 00:33:55;;;;;;;87.90;30.35;;;;;;;;;;4985048;28;20065;-73
2022/03/24 00:36:20;;;;;;;97.93;31.90;;;;;;;;;;4986711;28;20026;-73
2022/03/24 00:38:46;;;;;;;105.53;32.53;;;;;;;;;;4983492;28;20768;-73
2022/03/24 00:41:12;;;;;;;96.72;31.95;;;;;;;;;;4985417;28;20057;-73
2022/03/24 00:43:38;;;;;;;103.43;34.40;;;;;;;;;;4980502;28;20503;-73
2022/03/24 00:46:04;;;;;;;103.05;32.97;;;;;;;;;;4984855;28;20021;-73
2022/03/24 00:48:29;;;;;;;100.88;30.65;;;;;;;;;;4990132;28;20021;-73
2022/03/24 00:50:54;;;;;;;100.17;30.57;;;;;;;;;;4983715;28;20047;-73
2022/03/24 00:53:20;;;;;;;95.85;31.52;;;;;;;;;;4981749;28;20461;-73
2022/03/24 00:55:45;;;;;;;90.57;29.45;;;;;;;;;;4986228;28;20260;-73
2022/03/24 00:58:10;;;;;;;87.60;28.77;;;;;;;;;;4984328;28;20050;-73
2022/03/24 01:00:37;;;;;;;78.88;27.52;;;;;;;;;;4987423;28;20400;-73
2022/03/24 01:03:06;;;;;;;92.63;31.08;;;;;;;;;;4981114;28;20026;-73
2022/03/24 01:05:31;;;;;;;99.32;31.77;;;;;;;;;;4983950;28;20026;-73
2022/03/24 01:07:56;;;;;;;95.97;30.98;;;;;;;;;;4983133;28;20030;-73
2022/03/24 01:10:22;;;;;;;82.60;28.42;;;;;;;;;;4983560;28;20026;-73
2022/03/24 01:12:48;;;;;;;93.88;30.60;;;;;;;;;;4984608;28;20026;-73
2022/03/24 01:15:14;;;;;;;104.75;31.45;;;;;;;;;;4979367;28;20026;-73
2022/03/24 01:17:40;;;;;;;88.28;30.45;;;;;;;;;;4978939;28;20737;-73
2022/03/24 01:20:05;;;;;;;96.53;30.90;;;;;;;;;;4984384;28;20544;-73
2022/03/24 01:22:30;;;;;;;86.78;29.63;;;;;;;;;;4996871;28;20118;-73
2022/03/24 01:24:56;;;;;;;89.50;28.98;;;;;;;;;;4984320;28;20023;-73
2022/03/24 01:27:25;;;;;;;90.22;29.85;;;;;;;;;;4975814;28;20029;-73
2022/03/24 01:29:50;;;;;;;86.78;29.88;;;;;;;;;;4994420;28;20041;-73
2022/03/24 01:32:17;;;;;;;90.70;28.92;;;;;;;;;;4986129;28;20456;-73
2022/03/24 01:34:42;;;;;;;95.93;32.83;;;;;;;;;;4982969;28;20023;-73
2022/03/24 01:37:07;;;;;;;95.72;30.50;;;;;;;;;;4982578;28;20022;-73
2022/03/24 01:39:33;;;;;;;96.20;31.75;;;;;;;;;;4979401;28;20264;-73
2022/03/24 01:41:59;;;;;;;81.88;30.02;;;;;;;;;;4996858;28;20022;-73
2022/03/24 01:44:24;;;;;;;90.57;28.17;;;;;;;;;;4984713;28;20033;-73
2022/03/24 01:47:00;;;;;;;102.68;33.33;;;;;;;;;;4988694;28;20018;-73
2022/03/24 01:49:27;;;;;;;99.30;30.15;;;;;;;;;;4982879;28;20030;-73
2022/03/24 01:51:52;;;;;;;104.00;30.02;;;;;;;;;;4981343;28;20046;-73
2022/03/24 01:54:18;;;;;;;86.82;30.20;;;;;;;;;;4983118;28;20030;-73
2022/03/24 01:56:43;;;;;;;84.82;28.00;;;;;;;;;;4981515;28;20025;-73
2022/03/24 01:59:10;;;;;;;90.55;30.35;;;;;;;;;;4980597;28;20030;-73
2022/03/24 02:01:37;;;;;;;92.57;29.73;;;;;;;;;;4986704;28;20034;-73
2022/03/24 02:04:05;;;;;;;93.13;30.45;;;;;;;;;;4987347;28;20019;-73
2022/03/24 02:06:33;;;;;;;92.75;30.40;;;;;;;;;;4984182;28;20027;-73
2022/03/24 02:09:03;;;;;;;86.57;26.80;;;;;;;;;;4979097;28;20058;-73
2022/03/24 02:11:29;;;;;;;95.15;30.30;;;;;;;;;;4987624;28;20034;-73
2022/03/24 02:13:55;;;;;;;85.75;30.30;;;;;;;;;;4978874;28;20219;-73
2022/03/24 02:16:20;;;;;;;90.47;28.55;;;;;;;;;;4984958;28;20053;-73
2022/03/24 02:18:46;;;;;;;91.72;29.33;;;;;;;;;;4977745;28;20398;-73
2022/03/24 02:21:15;;;;;;;85.05;27.00;;;;;;;;;;4977883;28;20467;-73
2022/03/24 02:23:40;;;;;;;90.43;30.27;;;;;;;;;;4983451;28;20022;-73
2022/03/24 02:26:07;;;;;;;86.82;27.85;;;;;;;;;;4981283;28;20033;-73
2022/03/24 02:28:32;;;;;;;87.47;28.35;;;;;;;;;;4979902;28;20102;-73
2022/03/24 02:30:58;;;;;;;93.35;30.05;;;;;;;;;;4982739;28;20358;-73
2022/03/24 02:33:23;;;;;;;96.63;29.48;;;;;;;;;;4977475;28;20113;-73
2022/03/24 02:35:50;;;;;;;99.88;30.05;;;;;;;;;;4979248;28;20768;-73
2022/03/24 02:38:19;;;;;;;92.30;28.67;;;;;;;;;;4976947;28;20264;-73
2022/03/24 02:40:45;;;;;;;76.95;28.92;;;;;;;;;;4985130;28;20041;-73
2022/03/24 02:43:10;;;;;;;84.28;28.95;;;;;;;;;;4982022;28;20734;-73
2022/03/24 02:45:35;;;;;;;91.07;31.08;;;;;;;;;;4982224;28;20101;-73
2022/03/24 02:48:02;;;;;;;91.82;29.08;;;;;;;;;;4991292;28;20275;-73
2022/03/24 02:50:27;;;;;;;90.57;28.77;;;;;;;;;;4987118;28;20657;-73
2022/03/24 02:52:52;;;;;;;85.15;25.25;;;;;;;;;;4979839;28;20026;-73
2022/03/24 02:55:17;;;;;;;85.35;25.85;;;;;;;;;;4979908;28;20335;-73
2022/03/24 02:57:42;;;;;;;75.32;24.60;;;;;;;;;;4986443;28;20260;-73
2022/03/24 03:00:08;;;;;;;88.35;28.58;;;;;;;;;;4985096;28;20426;-73
2022/03/24 03:02:34;;;;;;;87.35;27.85;;;;;;;;;;4977367;28;20389;-73
2022/03/24 03:05:01;;;;;;;78.10;26.40;;;;;;;;;;4984190;28;20380;-73
2022/03/24 03:07:28;;;;;;;81.20;25.75;;;;;;;;;;4974315;28;20112;-73
2022/03/24 03:09:53;;;;;;;73.97;24.65;;;;;;;;;;4981329;28;20018;-73
2022/03/24 03:12:18;;;;;;;73.53;24.88;;;;;;;;;;4993122;28;20030;-73
2022/03/24 03:14:46;;;;;;;74.65;24.05;;;;;;;;;;4983083;28;20427;-73
2022/03/24 03:17:11;;;;;;;63.10;21.73;;;;;;;;;;4982147;28;20033;-73
2022/03/24 03:19:39;;;;;;;75.93;22.65;;;;;;;;;;4993496;28;20030;-73
2022/03/24 03:22:04;;;;;;;60.67;22.83;;;;;;;;;;4977401;28;20288;-73
2022/03/24 03:24:29;;;;;;;74.93;27.58;;;;;;;;;;4984231;28;20081;-73
2022/03/24 03:26:55;;;;;;;76.80;25.23;;;;;;;;;;4979373;28;20054;-73
2022/03/24 03:29:22;;;;;;;66.90;23.90;;;;;;;;;;4979482;28;20487;-73
2022/03/24 03:31:48;;;;;;;75.13;23.30;;;;;;;;;;4981841;28;20023;-73
2022/03/24 03:34:14;;;;;;;72.05;24.08;;;;;;;;;;4978580;28;20040;-73
2022/03/24 03:36:40;;;;;;;72.95;24.48;;;;;;;;;;4978276;28;20453;-73
2022/03/24 03:39:07;;;;;;;72.13;25.85;;;;;;;;;;4984808;28;20084;-73
2022/03/24 03:41:33;;;;;;;67.28;24.55;;;;;;;;;;4980029;28;20053;-73
2022/03/24 03:43:59;;;;;;;65.50;22.13;;;;;;;;;;4984344;28;20551;-73
2022/03/24 03:46:25;;;;;;;67.95;23.23;;;;;;;;;;4980966;28;20527;-73
2022/03/24 03:48:50;;;;;;;66.57;23.27;;;;;;;;;;4985335;28;20023;-73
2022/03/24 03:51:15;;;;;;;82.18;26.63;;;;;;;;;;4982691;28;20034;-73
2022/03/24 03:53:41;;;;;;;77.53;25.33;;;;;;;;;;4980818;28;20471;-73
2022/03/24 03:56:07;;;;;;;76.07;26.23;;;;;;;;;;4986666;28;20041;-73
2022/03/24 03:58:35;;;;;;;81.57;25.63;;;;;;;;;;4987495;28;20053;-73
2022/03/24 04:01:00;;;;;;;72.40;24.85;;;;;;;;;;4984279;28;20030;-73
2022/03/24 04:03:26;;;;;;;75.93;26.27;;;;;;;;;;4987817;28;20037;-73
2022/03/24 04:05:52;;;;;;;77.53;25.13;;;;;;;;;;4989373;28;20037;-73
2022/03/24 04:08:18;;;;;;;77.85;27.45;;;;;;;;;;4986069;28;20022;-73
2022/03/24 04:10:43;;;;;;;76.57;25.45;;;;;;;;;;4985808;28;20520;-73
2022/03/24 04:13:10;;;;;;;81.75;28.58;;;;;;;;;;4985440;28;20045;-73
2022/03/24 04:15:35;;;;;;;94.88;29.48;;;;;;;;;;4978379;28;20029;-73
2022/03/24 04:18:01;;;;;;;74.13;26.77;;;;;;;;;;5005406;28;20022;-73
2022/03/24 04:20:26;;;;;;;82.90;26.52;;;;;;;;;;4983169;28;20030;-73
2022/03/24 04:22:52;;;;;;;75.25;25.75;;;;;;;;;;4982091;28;20023;-73
2022/03/24 04:25:17;;;;;;;89.05;26.38;;;;;;;;;;4984493;28;20252;-73
2022/03/24 04:27:43;;;;;;;77.75;25.73;;;;;;;;;;4990351;28;20030;-73
2022/03/24 04:30:08;;;;;;;72.85;23.98;;;;;;;;;;4988405;28;20018;-73
2022/03/24 04:32:33;;;;;;;80.15;25.05;;;;;;;;;;4987765;28;20452;-73
2022/03/24 04:34:59;;;;;;;72.13;25.55;;;;;;;;;;4985067;28;20034;-73
2022/03/24 04:37:25;;;;;;;71.57;23.52;;;;;;;;;;4982356;28;20769;-73
2022/03/24 04:39:50;;;;;;;69.72;23.67;;;;;;;;;;4978841;28;20033;-74
2022/03/24 04:42:15;;;;;;;71.73;21.77;;;;;;;;;;4995978;28;20022;-73
2022/03/24 04:44:40;;;;;;;71.22;24.17;;;;;;;;;;5002332;28;20679;-73
2022/03/24 04:47:06;;;;;;;74.80;27.50;;;;;;;;;;4983134;28;20511;-73
2022/03/24 04:49:32;;;;;;;79.28;27.30;;;;;;;;;;4989536;28;20041;-73
2022/03/24 04:51:57;;;;;;;82.28;25.98;;;;;;;;;;4977043;28;20404;-73
2022/03/24 04:54:22;;;;;;;74.03;27.23;;;;;;;;;;4981913;28;20030;-73
2022/03/24 04:56:47;;;;;;;73.63;23.63;;;;;;;;;;4989098;28;20030;-73
2022/03/24 04:59:13;;;;;;;65.88;23.85;;;;;;;;;;5002109;28;20023;-73
2022/03/24 05:01:38;;;;;;;78.18;24.13;;;;;;;;;;4985078;28;20289;-73
2022/03/24 05:04:04;;;;;;;89.45;26.15;;;;;;;;;;4984607;28;20030;-73
2022/03/24 05:06:30;;;;;;;78.15;26.60;;;;;;;;;;4976724;28;20031;-73
2022/03/24 05:08:55;;;;;;;88.05;26.88;;;;;;;;;;4982674;28;20030;-73
2022/03/24 05:11:20;;;;;;;78.73;25.20;;;;;;;;;;4983056;28;20034;-73
2022/03/24 05:13:46;;;;;;;81.45;27.33;;;;;;;;;;4984000;28;21148;-73
2022/03/24 05:16:11;;;;;;;86.13;27.50;;;;;;;;;;4981675;28;20284;-73
2022/03/24 05:18:38;;;;;;;82.45;27.75;;;;;;;;;;4985594;28;20030;-73
2022/03/24 05:21:04;;;;;;;74.15;25.48;;;;;;;;;;4987522;28;20030;-73
2022/03/24 05:23:30;;;;;;;80.32;28.13;;;;;;;;;;4981155;28;20085;-73
2022/03/24 05:25:55;;;;;;;87.85;26.67;;;;;;;;;;4986878;28;20031;-73
2022/03/24 05:28:21;;;;;;;82.82;28.42;;;;;;;;;;4988155;28;20720;-73
2022/03/24 05:30:47;;;;;;;85.05;26.83;;;;;;;;;;4984710;28;20022;-73
2022/03/24 05:33:13;;;;;;;86.03;26.40;;;;;;;;;;4980729;28;20118;-73
2022/03/24 05:35:38;;;;;;;74.30;26.58;;;;;;;;;;4984405;28;20486;-73
2022/03/24 05:38:04;;;;;;;91.53;27.63;;;;;;;;;;4983421;28;20025;-73
2022/03/24 05:40:29;;;;;;;85.75;26.88;;;;;;;;;;4982561;28;20651;-73
2022/03/24 05:42:54;;;;;;;73.35;25.63;;;;;;;;;;4982921;28;20812;-73
2022/03/24 05:45:19;;;;;;;74.95;25.05;;;;;;;;;;5000413;28;20091;-73
2022/03/24 05:47:45;;;;;;;77.47;23.83;;;;;;;;;;4982604;28;20315;-73
2022/03/24 05:50:10;;;;;;;77.65;26.35;;;;;;;;;;4978774;28;20283;-73
2022/03/24 05:52:35;;;;;;;80.82;26.65;;;;;;;;;;4984067;28;20485;-73
2022/03/24 05:55:00;;;;;;;82.13;26.45;;;;;;;;;;4983856;28;20033;-73
2022/03/24 05:57:26;;;;;;;63.75;24.45;;;;;;;;;;4986054;28;20026;-73
2022/03/24 05:59:51;;;;;;;73.10;25.00;;;;;;;;;;4986344;28;20475;-73
2022/03/24 06:02:16;;;;;;;72.88;24.95;;;;;;;;;;4990857;28;20038;-73
2022/03/24 06:04:43;;;;;;;84.50;27.65;;;;;;;;;;4983451;28;20023;-73
2022/03/24 06:07:11;;;;;;;93.47;28.48;;;;;;;;;;4976950;28;20034;-73
2022/03/24 06:09:36;;;;;;;84.20;28.02;;;;;;;;;;4983413;28;20495;-73
2022/03/24 06:12:02;;;;;;;79.43;26.35;;;;;;;;;;4979422;28;20041;-73
2022/03/24 06:14:27;;;;;;;75.82;25.67;;;;;;;;;;4985652;28;20065;-73
2022/03/24 06:16:52;;;;;;;77.10;26.20;;;;;;;;;;4981201;28;20031;-73
2022/03/24 06:19:18;;;;;;;79.88;25.02;;;;;;;;;;4991877;28;20022;-73
2022/03/24 06:21:43;;;;;;;98.47;29.73;;;;;;;;;;4982094;28;20053;-73
2022/03/24 06:24:09;;;;;;;113.13;30.42;;;;;;;;;;4979986;28;20026;-73
2022/03/24 06:26:34;;;;;;;115.50;33.35;;;;;;;;;;4981641;28;20077;-72
2022/03/24 06:29:01;;;;;;;91.95;32.65;;;;;;;;;;4979821;28;20418;-73
2022/03/24 06:31:26;;;;;;;94.82;31.58;;;;;;;;;;4977571;28;20034;-74
2022/03/24 06:33:51;;;;;;;95.35;30.90;;;;;;;;;;4985083;28;20057;-76
2022/03/24 06:36:16;;;;;;;104.47;31.20;;;;;;;;;;4982079;28;20488;-74
2022/03/24 06:38:42;;;;;;;103.30;31.75;;;;;;;;;;4984289;28;20310;-72
2022/03/24 06:41:08;;;;;;;115.60;36.33;;;;;;;;;;4996435;28;20031;-74
2022/03/24 06:43:34;;;;;;;105.28;33.72;;;;;;;;;;4987272;28;20029;-74
2022/03/24 06:45:59;;;;;;;88.80;31.45;;;;;;;;;;4980284;28;20022;-71
2022/03/24 06:48:25;;;;;;;104.07;32.50;;;;;;;;;;4979015;28;20035;-73
2022/03/24 06:50:50;;;;;;;86.75;27.85;;;;;;;;;;4984289;28;20416;-74
2022/03/24 06:53:15;;;;;;;107.43;29.25;;;;;;;;;;4985292;28;20428;-73
2022/03/24 06:55:40;;;;;;;114.22;29.90;;;;;;;;;;4987924;28;20267;-73
2022/03/24 06:58:06;;;;;;;89.47;28.43;;;;;;;;;;4978937;28;20113;-72
2022/03/24 07:00:31;;;;;;;101.53;27.45;;;;;;;;;;4974913;28;20279;-74
2022/03/24 07:02:58;;;;;;;88.63;28.88;;;;;;;;;;4978742;28;20036;-74
2022/03/24 07:05:23;;;;;;;94.93;29.85;;;;;;;;;;4979119;28;20014;-73
2022/03/24 07:07:49;;;;;;;78.72;28.90;;;;;;;;;;4980513;28;20384;-73
2022/03/24 07:10:14;;;;;;;90.63;29.75;;;;;;;;;;4983150;28;20021;-72
2022/03/24 07:12:39;;;;;;;88.80;31.17;;;;;;;;;;4976262;28;20126;-73
2022/03/24 07:15:07;;;;;;;90.90;32.03;;;;;;;;;;4980897;28;20065;-73
2022/03/24 07:17:33;;;;;;;95.07;33.80;;;;;;;;;;4994848;28;20030;-74
2022/03/24 07:19:58;;;;;;;89.75;33.25;;;;;;;;;;4979392;28;20026;-74
2022/03/24 07:22:23;;;;;;;98.05;35.38;;;;;;;;;;4982633;28;20037;-73
2022/03/24 07:24:49;;;;;;;103.27;37.53;;;;;;;;;;4985912;28;20029;-73
2022/03/24 07:27:17;;;;;;;108.13;38.10;;;;;;;;;;4981855;28;20730;-73
2022/03/24 07:29:42;;;;;;;116.20;42.28;;;;;;;;;;4984536;28;20037;-73
2022/03/24 07:32:08;;;;;;;122.25;40.10;;;;;;;;;;4977931;28;20018;-73
2022/03/24 07:34:34;;;;;;;110.53;38.28;;;;;;;;;;4982512;28;20038;-73
2022/03/24 07:36:59;;;;;;;115.45;41.08;;;;;;;;;;4982393;28;20026;-73
2022/03/24 07:39:24;;;;;;;121.80;41.05;;;;;;;;;;4983472;28;20180;-73
2022/03/24 07:41:49;;;;;;;118.70;39.90;;;;;;;;;;4983409;28;20229;-73
2022/03/24 07:44:15;;;;;;;131.75;42.50;;;;;;;;;;4981679;28;20303;-73
2022/03/24 07:46:41;;;;;;;115.90;43.88;;;;;;;;;;4976244;28;20065;-73
2022/03/24 07:49:06;;;;;;;130.23;42.10;;;;;;;;;;4988716;28;20027;-74
2022/03/24 07:51:32;;;;;;;122.80;43.87;;;;;;;;;;4988466;28;20052;-75
2022/03/24 07:53:59;;;;;;;135.50;43.35;;;;;;;;;;4984097;28;20014;-75
2022/03/24 07:56:25;;;;;;;131.90;43.97;;;;;;;;;;4980542;28;20026;-75
2022/03/24 07:58:51;;;;;;;132.70;45.25;;;;;;;;;;4981560;28;20392;-77
2022/03/24 08:01:23;;;;;;;119.20;42.55;;;;;;;;;;4984780;28;20476;-74
2022/03/24 08:03:50;;;;;;;133.10;45.30;;;;;;;;;;4989883;28;20101;-74
2022/03/24 08:06:16;;;;;;;130.07;43.58;;;;;;;;;;4982289;28;20153;-73
2022/03/24 08:08:41;;;;;;;133.52;45.63;;;;;;;;;;4979445;28;20393;-73
2022/03/24 08:11:06;;;;;;;132.98;43.55;;;;;;;;;;4984881;28;20496;-73
2022/03/24 08:13:31;;;;;;;124.80;44.42;;;;;;;;;;4981249;28;20026;-73
2022/03/24 08:15:56;;;;;;;123.90;43.00;;;;;;;;;;4980541;28;20073;-74
2022/03/24 08:18:21;;;;;;;122.45;41.70;;;;;;;;;;4983556;28;20484;-72
2022/03/24 08:20:47;;;;;;;130.60;46.88;;;;;;;;;;4984681;28;20366;-73
2022/03/24 08:23:13;;;;;;;131.30;45.50;;;;;;;;;;4978111;28;20026;-73
2022/03/24 08:25:40;;;;;;;130.70;45.47;;;;;;;;;;4985351;28;20393;-73
2022/03/24 08:28:05;;;;;;;130.52;45.85;;;;;;;;;;4981951;28;20085;-73
2022/03/24 08:30:30;;;;;;;129.13;44.47;;;;;;;;;;4986367;28;20484;-72
2022/03/24 08:32:55;;;;;;;128.00;41.67;;;;;;;;;;4982518;28;20496;-72
2022/03/24 08:35:21;;;;;;;131.03;43.00;;;;;;;;;;4987024;28;20056;-72
2022/03/24 08:37:46;;;;;;;117.97;41.90;;;;;;;;;;4980340;28;20034;-72
2022/03/24 08:40:12;;;;;;;132.90;44.28;;;;;;;;;;4978209;28;20037;-72
2022/03/24 08:42:38;;;;;;;129.18;43.13;;;;;;;;;;4987354;28;20105;-72
2022/03/24 08:45:08;;;;;;;131.60;47.50;;;;;;;;;;4983311;28;20065;-72
2022/03/24 08:47:33;;;;;;;125.93;45.50;;;;;;;;;;4982456;28;20034;-72
2022/03/24 08:49:59;;;;;;;132.18;44.75;;;;;;;;;;4978077;28;20089;-72
2022/03/24 08:52:25;;;;;;;119.13;43.72;;;;;;;;;;4987437;28;20545;-72
2022/03/24 08:54:50;;;;;;;124.78;44.58;;;;;;;;;;4982212;28;20026;-72
2022/03/24 08:57:16;;;;;;;117.40;43.43;;;;;;;;;;4979992;28;20027;-73
2022/03/24 08:59:41;;;;;;;133.32;45.78;;;;;;;;;;4988075;28;20073;-72
2022/03/24 09:02:08;;;;;;;132.88;45.72;;;;;;;;;;4985852;28;20033;-72
2022/03/24 09:04:33;;;;;;;122.20;45.25;;;;;;;;;;4989190;28;20388;-72
2022/03/24 09:06:58;;;;;;;129.23;47.83;;;;;;;;;;4979147;28;20018;-71
2022/03/24 09:09:23;;;;;;;123.95;45.60;;;;;;;;;;4988160;28;20321;-71
2022/03/24 09:11:49;;;;;;;135.90;46.27;;;;;;;;;;4986438;28;20395;-72
2022/03/24 09:14:16;;;;;;;129.85;48.00;;;;;;;;;;4988279;28;20088;-72
2022/03/24 09:16:41;;;;;;;129.60;46.65;;;;;;;;;;4985603;28;20026;-72
2022/03/24 09:19:06;;;;;;;137.55;48.80;;;;;;;;;;4986864;28;20046;-72
2022/03/24 09:21:32;;;;;;;131.82;45.55;;;;;;;;;;4984695;28;20102;-72
2022/03/24 09:23:57;;;;;;;124.10;45.30;;;;;;;;;;4985441;28;20085;-72
2022/03/24 09:26:22;;;;;;;116.40;44.55;;;;;;;;;;4983892;28;20026;-72
2022/03/24 09:28:49;;;;;;;130.20;47.58;;;;;;;;;;4984344;28;20065;-72
2022/03/24 09:31:15;;;;;;;127.47;44.90;;;;;;;;;;4999402;28;20116;-72
2022/03/24 09:33:40;;;;;;;120.55;46.03;;;;;;;;;;4980403;28;20114;-71
2022/03/24 09:36:05;;;;;;;118.97;45.70;;;;;;;;;;4977299;28;20046;-72
2022/03/24 09:38:30;;;;;;;118.13;43.90;;;;;;;;;;4981522;28;20046;-72
2022/03/24 09:40:56;;;;;;;126.60;46.17;;;;;;;;;;4981566;28;20022;-72
2022/03/24 09:43:22;;;;;;;110.00;42.88;;;;;;;;;;4982846;28;20468;-71
2022/03/24 09:45:47;;;;;;;127.97;47.92;;;;;;;;;;4990430;28;20058;-72
2022/03/24 09:48:15;;;;;;;121.28;47.50;;;;;;;;;;4983086;28;20178;-72
2022/03/24 09:50:41;;;;;;;117.20;46.28;;;;;;;;;;4983394;28;20498;-71
2022/03/24 09:53:06;;;;;;;127.57;46.40;;;;;;;;;;4983247;28;20046;-72
2022/03/24 09:55:36;;;;;;;111.63;42.37;;;;;;;;;;4976867;28;20038;-71
2022/03/24 09:58:02;;;;;;;118.35;44.42;;;;;;;;;;4981032;28;20030;-72
2022/03/24 10:00:27;;;;;;;111.20;43.20;;;;;;;;;;4988304;28;20030;-72
2022/03/24 10:03:05;;;;;;;118.78;44.38;;;;;;;;;;4987578;28;20026;-71
2022/03/24 10:05:31;;;;;;;117.65;41.30;;;;;;;;;;4986164;28;20030;-72
2022/03/24 10:08:02;;;;;;;119.25;46.85;;;;;;;;;;4980323;28;20034;-72
2022/03/24 10:10:28;;;;;;;122.68;48.30;;;;;;;;;;4985998;28;20301;-72
2022/03/24 10:12:53;;;;;;;122.30;45.85;;;;;;;;;;4982712;28;20109;-72
2022/03/24 10:15:18;;;;;;;113.83;43.10;;;;;;;;;;4978378;28;20041;-72
2022/03/24 10:17:51;;;;;;;99.00;39.03;;;;;;;;;;4984829;28;20052;-71
2022/03/24 10:20:16;;;;;;;103.05;40.22;;;;;;;;;;4983161;28;20264;-72
2022/03/24 10:23:00;;;;;;;99.43;41.13;;;;;;;;;;4981259;28;20659;-71
2022/03/24 10:25:26;;;;;;;91.95;37.50;;;;;;;;;;4983417;28;20093;-72
2022/03/24 10:28:05;;;;;;;102.07;38.05;;;;;;;;;;4982031;28;20029;-72
2022/03/24 10:30:50;;;;;;;84.10;36.88;;;;;;;;;;4971712;28;20030;-71
2022/03/24 10:33:47;;;;;;;101.90;41.53;;;;;;;;;;4981981;28;20031;-73
2022/03/24 10:36:12;;;;;;;89.40;37.40;;;;;;;;;;4977495;28;22027;-73
2022/03/24 10:38:45;;;;;;;96.73;40.97;;;;;;;;;;4988532;28;20030;-72
2022/03/24 10:41:29;;;;;;;89.20;37.65;;;;;;;;;;4972657;28;20093;-71
2022/03/24 10:43:59;;;;;;;81.00;34.40;;;;;;;;;;4983801;28;20027;-71
2022/03/24 10:46:31;;;;;;;90.32;39.88;;;;;;;;;;4982115;28;20095;-72
2022/03/24 10:48:56;;;;;;;93.95;37.83;;;;;;;;;;4982531;28;20030;-70
2022/03/24 10:51:22;;;;;;;80.50;37.38;;;;;;;;;;4990433;28;20027;-72
2022/03/24 10:53:48;;;;;;;93.53;39.03;;;;;;;;;;4984885;28;20213;-73
2022/03/24 10:56:16;;;;;;;88.80;38.28;;;;;;;;;;4983681;28;20101;-72
2022/03/24 10:58:47;;;;;;;83.40;36.60;;;;;;;;;;4979014;28;20145;-71
2022/03/24 11:01:14;;;;;;;85.93;36.45;;;;;;;;;;4978317;28;20399;-72
2022/03/24 11:03:40;;;;;;;78.95;35.10;;;;;;;;;;4987659;28;20402;-71
2022/03/24 11:06:06;;;;;;;82.85;37.55;;;;;;;;;;4980594;28;20526;-71
2022/03/24 11:08:32;;;;;;;84.20;39.20;;;;;;;;;;4985556;28;20479;-71
2022/03/24 11:10:57;;;;;;;87.45;38.10;;;;;;;;;;4982400;28;20407;-71
2022/03/24 11:13:27;;;;;;;88.50;38.40;;;;;;;;;;4987254;28;20084;-71
2022/03/24 11:15:53;;;;;;;89.20;39.92;;;;;;;;;;4983404;28;20101;-72
2022/03/24 11:18:19;;;;;;;84.50;38.67;;;;;;;;;;4984134;28;20299;-71
2022/03/24 11:20:46;;;;;;;81.30;36.10;;;;;;;;;;4988285;28;20053;-69
2022/03/24 11:23:31;;;;;;;88.22;37.08;;;;;;;;;;4984649;28;20040;-71
2022/03/24 11:25:57;;;;;;;84.38;38.08;;;;;;;;;;4977803;28;20464;-70
2022/03/24 11:28:25;;;;;;;89.72;38.97;;;;;;;;;;4980640;28;20038;-72
2022/03/24 11:30:51;;;;;;;92.00;42.38;;;;;;;;;;4983026;28;20025;-70
2022/03/24 11:33:16;;;;;;;95.18;40.72;;;;;;;;;;4978607;28;20033;-70
2022/03/24 11:35:42;;;;;;;88.03;41.20;;;;;;;;;;4984323;28;20033;-71
2022/03/24 11:38:07;;;;;;;80.55;39.00;;;;;;;;;;4981085;28;20132;-71
2022/03/24 11:40:34;;;;;;;92.50;40.10;;;;;;;;;;4989723;28;20105;-73
2022/03/24 11:43:02;;;;;;;95.25;42.80;;;;;;;;;;4983092;28;20030;-74
2022/03/24 11:45:46;;;;;;;95.43;42.20;;;;;;;;;;4979210;28;20439;-72
2022/03/24 11:48:12;;;;;;;99.57;43.60;;;;;;;;;;4977919;28;20018;-71
2022/03/24 11:50:47;;;;;;;96.43;41.60;;;;;;;;;;4983284;28;20447;-71
2022/03/24 11:53:16;;;;;;;95.65;40.88;;;;;;;;;;4979576;28;20018;-71
2022/03/24 11:55:59;;;;;;;95.18;41.72;;;;;;;;;;4983142;28;20026;-71
2022/03/24 11:58:25;;;;;;;112.13;44.17;;;;;;;;;;4983296;28;20033;-71
2022/03/24 12:00:51;;;;;;;138.05;59.50;;;;;;;;;;4984660;28;20022;-71
2022/03/24 12:03:35;;;;;;;104.60;44.60;;;;;;;;;;4987396;28;20434;-71
2022/03/24 12:06:00;;;;;;;110.50;46.42;;;;;;;;;;4984714;28;20030;-71
2022/03/24 12:08:29;;;;;;;116.35;46.58;;;;;;;;;;4982545;28;20053;-71
2022/03/24 12:10:55;;;;;;;118.65;52.33;;;;;;;;;;4986467;28;20077;-71
2022/03/24 12:13:21;;;;;;;169.10;75.22;;;;;;;;;;4984210;28;20042;-71
2022/03/24 12:16:05;;;;;;;116.00;50.25;;;;;;;;;;4981786;28;20026;-71
2022/03/24 12:18:38;;;;;;;117.55;50.20;;;;;;;;;;4983109;28;20042;-71
2022/03/24 12:21:04;;;;;;;120.80;50.83;;;;;;;;;;4982236;28;20030;-72
2022/03/24 12:23:49;;;;;;;117.18;48.35;;;;;;;;;;4984021;28;20023;-71
2022/03/24 12:26:16;;;;;;;123.47;52.80;;;;;;;;;;4978202;28;20050;-71
2022/03/24 12:28:43;;;;;;;121.68;53.08;;;;;;;;;;4976953;28;20042;-72
2022/03/24 12:31:08;;;;;;;131.98;52.50;;;;;;;;;;4985914;28;20384;-71
2022/03/24 12:33:35;;;;;;;126.90;50.92;;;;;;;;;;4978049;28;20030;-72
2022/03/24 12:36:03;;;;;;;128.63;55.13;;;;;;;;;;4976489;28;20317;-71
2022/03/24 12:38:30;;;;;;;124.28;47.88;;;;;;;;;;4975621;28;20014;-72
2022/03/24 12:41:15;;;;;;;131.65;53.00;;;;;;;;;;4981132;28;20149;-72
2022/03/24 12:43:46;;;;;;;129.77;49.30;;;;;;;;;;4976346;28;20507;-72
2022/03/24 12:46:23;;;;;;;126.05;52.20;;;;;;;;;;4977599;28;20023;-71
2022/03/24 12:48:49;;;;;;;126.72;50.47;;;;;;;;;;4979569;28;20018;-72
2022/03/24 12:51:18;;;;;;;125.22;48.00;;;;;;;;;;4981322;28;20027;-71
2022/03/24 12:53:58;;;;;;;140.65;49.15;;;;;;;;;;4972627;28;20524;-72
2022/03/24 12:56:26;;;;;;;132.73;51.97;;;;;;;;;;4982865;28;20259;-73
2022/03/24 12:58:56;;;;;;;124.50;48.53;;;;;;;;;;4982287;28;20113;-72
2022/03/24 13:01:22;;;;;;;118.00;47.47;;;;;;;;;;4980376;28;20029;-72
2022/03/24 13:03:53;;;;;;;108.72;44.13;;;;;;;;;;4978046;28;20018;-71
2022/03/24 13:06:18;;;;;;;93.60;39.90;;;;;;;;;;4983835;28;20026;-70
2022/03/24 13:08:44;;;;;;;107.65;39.47;;;;;;;;;;4972521;28;20366;-72
2022/03/24 13:11:09;;;;;;;102.20;42.25;;;;;;;;;;4983878;28;20187;-73
2022/03/24 13:13:46;;;;;;;103.37;40.40;;;;;;;;;;4984355;28;20451;-73
2022/03/24 13:16:21;;;;;;;108.88;41.85;;;;;;;;;;4983504;28;20583;-74
2022/03/24 13:18:55;;;;;;;111.47;43.75;;;;;;;;;;4978263;28;20062;-72
2022/03/24 13:21:23;;;;;;;110.45;41.17;;;;;;;;;;4983236;28;20036;-72
2022/03/24 13:23:53;;;;;;;109.45;44.13;;;;;;;;;;4982688;28;20109;-71
2022/03/24 13:26:19;;;;;;;109.47;43.13;;;;;;;;;;4980661;28;20060;-72
2022/03/24 13:28:45;;;;;;;115.22;45.80;;;;;;;;;;4984433;28;20046;-73
2022/03/24 13:31:10;;;;;;;112.45;45.88;;;;;;;;;;4989500;28;20536;-73
2022/03/24 13:33:35;;;;;;;121.13;44.28;;;;;;;;;;4979579;28;20019;-73
2022/03/24 13:36:01;;;;;;;113.27;42.80;;;;;;;;;;4983200;28;20022;-73
2022/03/24 13:38:27;;;;;;;106.82;39.65;;;;;;;;;;4997186;28;20034;-73
2022/03/24 13:40:54;;;;;;;104.13;40.65;;;;;;;;;;4983859;28;20022;-73
2022/03/24 13:43:21;;;;;;;95.70;36.78;;;;;;;;;;4980925;28;20052;-73
2022/03/24 13:45:48;;;;;;;94.68;38.40;;;;;;;;;;4977877;28;20038;-73
2022/03/24 13:48:14;;;;;;;93.15;38.47;;;;;;;;;;4980747;28;20022;-73
2022/03/24 13:50:55;;;;;;;89.97;36.55;;;;;;;;;;4981759;28;20109;-71
2022/03/24 13:53:27;;;;;;;100.78;38.85;;;;;;;;;;4982971;28;20029;-73
2022/03/24 13:56:08;;;;;;;94.93;35.67;;;;;;;;;;4983470;28;20061;-72
2022/03/24 13:58:34;;;;;;;128.60;39.50;;;;;;;;;;4982321;28;20026;-73
2022/03/24 14:01:06;;;;;;;99.57;37.15;;;;;;;;;;4979517;28;20033;-73
2022/03/24 14:03:36;;;;;;;99.60;35.75;;;;;;;;;;4975687;28;20396;-73
2022/03/24 14:06:07;;;;;;;96.68;37.97;;;;;;;;;;4980253;28;20101;-73
2022/03/24 14:08:34;;;;;;;94.40;36.47;;;;;;;;;;4977408;28;20022;-72